sensor_id;sensor_type;location;lat;lon;timestamp;temperature;humidity
63313;DHT22;49442;45.640;13.812;2024-02-04T00:00:29;6.90;99.90
63313;DHT22;49442;45.640;13.812;2024-02-04T00:02:55;6.90;99.90
63313;DHT22;49442;45.640;13.812;2024-02-04T00:05:21;7.00;99.90
63313;DHT22;49442;45.640;13.812;2024-02-04T00:07:46;7.10;99.90
63313;DHT22;49442;45.640;13.812;2024-02-04T00:10:12;7.00;99.90
63313;DHT22;49442;45.640;13.812;2024-02-04T00:12:40;6.90;99.90
63313;DHT22;49442;45.640;13.812;2024-02-04T00:15:06;6.80;99.90
63313;DHT22;49442;45.640;13.812;2024-02-04T00:17:32;7.00;99.90
63313;DHT22;49442;45.640;13.812;2024-02-04T00:20:03;7.00;99.90
63313;DHT22;49442;45.640;13.812;2024-02-04T00:22:31;7.00;99.90
63313;DHT22;49442;45.640;13.812;2024-02-04T00:24:59;6.90;99.90
63313;DHT22;49442;45.640;13.812;2024-02-04T00:27:33;6.90;99.90
63313;DHT22;49442;45.640;13.812;2024-02-04T00:29:59;6.90;99.90
63313;DHT22;49442;45.640;13.812;2024-02-04T00:32:25;6.90;99.90
63313;DHT22;49442;45.640;13.812;2024-02-04T00:34:52;6.90;99.90
63313;DHT22;49442;45.640;13.812;2024-02-04T00:37:18;6.90;99.90
63313;DHT22;49442;45.640;13.812;2024-02-04T00:39:44;6.90;99.90
63313;DHT22;49442;45.640;13.812;2024-02-04T00:42:09;6.90;99.90
63313;DHT22;49442;45.640;13.812;2024-02-04T00:44:36;6.90;99.90
63313;DHT22;49442;45.640;13.812;2024-02-04T00:47:02;6.90;99.90
63313;DHT22;49442;45.640;13.812;2024-02-04T00:49:28;6.90;99.90
63313;DHT22;49442;45.640;13.812;2024-02-04T00:51:54;7.00;99.90
63313;DHT22;49442;45.640;13.812;2024-02-04T00:54:20;7.00;99.90
63313;DHT22;49442;45.640;13.812;2024-02-04T00:56:45;7.00;99.90
63313;DHT22;49442;45.640;13.812;2024-02-04T00:59:11;7.00;99.90
63313;DHT22;49442;45.640;13.812;2024-02-04T01:01:40;7.10;99.90
63313;DHT22;49442;45.640;13.812;2024-02-04T01:04:05;6.90;99.90
63313;DHT22;49442;45.640;13.812;2024-02-04T01:06:31;6.90;99.90
63313;DHT22;49442;45.640;13.812;2024-02-04T01:08:57;6.80;99.90
63313;DHT22;49442;45.640;13.812;2024-02-04T01:11:23;6.90;99.90
63313;DHT22;49442;45.640;13.812;2024-02-04T01:13:48;6.90;99.90
63313;DHT22;49442;45.640;13.812;2024-02-04T01:16:14;7.00;99.90
63313;DHT22;49442;45.640;13.812;2024-02-04T01:18:40;7.00;99.90
63313;DHT22;49442;45.640;13.812;2024-02-04T01:21:05;6.90;99.90
63313;DHT22;49442;45.640;13.812;2024-02-04T01:23:31;6.90;99.90
63313;DHT22;49442;45.640;13.812;2024-02-04T01:25:57;7.00;99.90
63313;DHT22;49442;45.640;13.812;2024-02-04T01:28:23;7.00;99.90
63313;DHT22;49442;45.640;13.812;2024-02-04T01:30:48;6.90;99.90
63313;DHT22;49442;45.640;13.812;2024-02-04T01:33:14;7.00;99.90
63313;DHT22;49442;45.640;13.812;2024-02-04T01:35:39;6.90;99.90
63313;DHT22;49442;45.640;13.812;2024-02-04T01:38:06;6.90;99.90
63313;DHT22;49442;45.640;13.812;2024-02-04T01:40:31;6.80;99.90
63313;DHT22;49442;45.640;13.812;2024-02-04T01:42:57;6.90;99.90
63313;DHT22;49442;45.640;13.812;2024-02-04T01:45:23;6.80;99.90
63313;DHT22;49442;45.640;13.812;2024-02-04T01:47:50;6.80;99.90
63313;DHT22;49442;45.640;13.812;2024-02-04T01:50:16;6.80;99.90
63313;DHT22;49442;45.640;13.812;2024-02-04T01:52:42;6.80;99.90
63313;DHT22;49442;45.640;13.812;2024-02-04T01:55:09;6.90;99.90
63313;DHT22;49442;45.640;13.812;2024-02-04T01:57:36;6.90;99.90
63313;DHT22;49442;45.640;13.812;2024-02-04T02:00:02;6.90;99.90
63313;DHT22;49442;45.640;13.812;2024-02-04T02:02:29;6.90;99.90
63313;DHT22;49442;45.640;13.812;2024-02-04T02:04:56;6.90;99.90
63313;DHT22;49442;45.640;13.812;2024-02-04T02:07:23;6.90;99.90
63313;DHT22;49442;45.640;13.812;2024-02-04T02:09:52;6.90;99.90
63313;DHT22;49442;45.640;13.812;2024-02-04T02:12:24;7.00;99.90
63313;DHT22;49442;45.640;13.812;2024-02-04T02:14:58;6.90;99.90
63313;DHT22;49442;45.640;13.812;2024-02-04T02:17:33;6.90;99.90
63313;DHT22;49442;45.640;13.812;2024-02-04T02:20:22;6.90;99.90
63313;DHT22;49442;45.640;13.812;2024-02-04T02:23:22;6.90;99.90
63313;DHT22;49442;45.640;13.812;2024-02-04T02:25:42;6.80;99.90
63313;DHT22;49442;45.640;13.812;2024-02-04T02:28:08;6.90;99.90
63313;DHT22;49442;45.640;13.812;2024-02-04T02:30:35;6.90;99.90
63313;DHT22;49442;45.640;13.812;2024-02-04T02:33:00;6.90;99.90
63313;DHT22;49442;45.640;13.812;2024-02-04T02:35:26;6.90;99.90
63313;DHT22;49442;45.640;13.812;2024-02-04T02:38:26;6.90;99.90
63313;DHT22;49442;45.640;13.812;2024-02-04T02:41:03;6.90;99.90
63313;DHT22;49442;45.640;13.812;2024-02-04T02:43:30;6.80;99.90
63313;DHT22;49442;45.640;13.812;2024-02-04T02:45:56;6.80;99.90
63313;DHT22;49442;45.640;13.812;2024-02-04T02:48:22;6.70;99.90
63313;DHT22;49442;45.640;13.812;2024-02-04T02:50:49;6.80;99.90
63313;DHT22;49442;45.640;13.812;2024-02-04T02:53:15;6.70;99.90
63313;DHT22;49442;45.640;13.812;2024-02-04T02:55:41;6.70;99.90
63313;DHT22;49442;45.640;13.812;2024-02-04T02:58:07;6.70;99.90
63313;DHT22;49442;45.640;13.812;2024-02-04T03:00:33;6.60;99.90
63313;DHT22;49442;45.640;13.812;2024-02-04T03:02:58;6.60;99.90
63313;DHT22;49442;45.640;13.812;2024-02-04T03:05:24;6.60;99.90
63313;DHT22;49442;45.640;13.812;2024-02-04T03:07:50;6.60;99.90
63313;DHT22;49442;45.640;13.812;2024-02-04T03:10:16;6.50;99.90
63313;DHT22;49442;45.640;13.812;2024-02-04T03:12:41;6.50;99.90
63313;DHT22;49442;45.640;13.812;2024-02-04T03:15:07;6.40;99.90
63313;DHT22;49442;45.640;13.812;2024-02-04T03:17:33;6.40;99.90
63313;DHT22;49442;45.640;13.812;2024-02-04T03:19:59;6.40;99.90
63313;DHT22;49442;45.640;13.812;2024-02-04T03:22:25;6.40;99.90
63313;DHT22;49442;45.640;13.812;2024-02-04T03:24:51;6.30;99.90
63313;DHT22;49442;45.640;13.812;2024-02-04T03:27:17;6.30;99.90
63313;DHT22;49442;45.640;13.812;2024-02-04T03:29:43;6.30;99.90
63313;DHT22;49442;45.640;13.812;2024-02-04T03:32:11;6.30;99.90
63313;DHT22;49442;45.640;13.812;2024-02-04T03:34:36;6.30;99.90
63313;DHT22;49442;45.640;13.812;2024-02-04T03:37:02;6.40;99.90
63313;DHT22;49442;45.640;13.812;2024-02-04T03:39:28;6.40;99.90
63313;DHT22;49442;45.640;13.812;2024-02-04T03:41:54;6.30;99.90
63313;DHT22;49442;45.640;13.812;2024-02-04T03:44:20;6.30;99.90
63313;DHT22;49442;45.640;13.812;2024-02-04T03:46:49;6.40;99.90
63313;DHT22;49442;45.640;13.812;2024-02-04T03:49:16;6.40;99.90
63313;DHT22;49442;45.640;13.812;2024-02-04T03:51:42;6.40;99.90
63313;DHT22;49442;45.640;13.812;2024-02-04T03:54:08;6.30;99.90
63313;DHT22;49442;45.640;13.812;2024-02-04T03:56:33;6.40;99.90
63313;DHT22;49442;45.640;13.812;2024-02-04T03:58:59;6.40;99.90
63313;DHT22;49442;45.640;13.812;2024-02-04T04:01:25;6.30;99.90
63313;DHT22;49442;45.640;13.812;2024-02-04T04:03:50;6.20;99.90
63313;DHT22;49442;45.640;13.812;2024-02-04T04:06:16;6.10;99.90
63313;DHT22;49442;45.640;13.812;2024-02-04T04:08:42;6.10;99.90
63313;DHT22;49442;45.640;13.812;2024-02-04T04:11:09;6.10;99.90
63313;DHT22;49442;45.640;13.812;2024-02-04T04:13:35;6.10;99.90
63313;DHT22;49442;45.640;13.812;2024-02-04T04:16:02;6.10;99.90
63313;DHT22;49442;45.640;13.812;2024-02-04T04:18:27;6.00;99.90
63313;DHT22;49442;45.640;13.812;2024-02-04T04:20:53;6.10;99.90
63313;DHT22;49442;45.640;13.812;2024-02-04T04:23:19;6.10;99.90
63313;DHT22;49442;45.640;13.812;2024-02-04T04:25:44;6.00;99.90
63313;DHT22;49442;45.640;13.812;2024-02-04T04:28:10;6.00;99.90
63313;DHT22;49442;45.640;13.812;2024-02-04T04:30:36;6.00;99.90
63313;DHT22;49442;45.640;13.812;2024-02-04T04:33:02;6.00;99.90
63313;DHT22;49442;45.640;13.812;2024-02-04T04:35:27;6.00;99.90
63313;DHT22;49442;45.640;13.812;2024-02-04T04:37:53;6.00;99.90
63313;DHT22;49442;45.640;13.812;2024-02-04T04:40:19;6.10;99.90
63313;DHT22;49442;45.640;13.812;2024-02-04T04:42:44;6.10;99.90
63313;DHT22;49442;45.640;13.812;2024-02-04T04:45:10;6.00;99.90
63313;DHT22;49442;45.640;13.812;2024-02-04T04:47:37;6.00;99.90
63313;DHT22;49442;45.640;13.812;2024-02-04T04:50:04;6.00;99.90
63313;DHT22;49442;45.640;13.812;2024-02-04T04:52:31;5.90;99.90
63313;DHT22;49442;45.640;13.812;2024-02-04T04:54:56;5.90;99.90
63313;DHT22;49442;45.640;13.812;2024-02-04T04:57:23;6.00;99.90
63313;DHT22;49442;45.640;13.812;2024-02-04T04:59:48;5.90;99.90
63313;DHT22;49442;45.640;13.812;2024-02-04T05:02:14;5.90;99.90
63313;DHT22;49442;45.640;13.812;2024-02-04T05:04:43;5.90;99.90
63313;DHT22;49442;45.640;13.812;2024-02-04T05:07:10;5.90;99.90
63313;DHT22;49442;45.640;13.812;2024-02-04T05:09:36;5.80;99.90
63313;DHT22;49442;45.640;13.812;2024-02-04T05:12:03;5.80;99.90
63313;DHT22;49442;45.640;13.812;2024-02-04T05:14:28;5.80;99.90
63313;DHT22;49442;45.640;13.812;2024-02-04T05:16:54;6.00;99.90
63313;DHT22;49442;45.640;13.812;2024-02-04T05:19:20;6.00;99.90
63313;DHT22;49442;45.640;13.812;2024-02-04T05:21:46;6.00;99.90
63313;DHT22;49442;45.640;13.812;2024-02-04T05:24:12;6.00;99.90
63313;DHT22;49442;45.640;13.812;2024-02-04T05:26:38;6.00;99.90
63313;DHT22;49442;45.640;13.812;2024-02-04T05:29:04;5.90;99.90
63313;DHT22;49442;45.640;13.812;2024-02-04T05:31:29;5.80;99.90
63313;DHT22;49442;45.640;13.812;2024-02-04T05:33:56;5.80;99.90
63313;DHT22;49442;45.640;13.812;2024-02-04T05:36:22;5.80;99.90
63313;DHT22;49442;45.640;13.812;2024-02-04T05:38:47;5.70;99.90
63313;DHT22;49442;45.640;13.812;2024-02-04T05:41:13;5.70;99.90
63313;DHT22;49442;45.640;13.812;2024-02-04T05:43:39;5.80;99.90
63313;DHT22;49442;45.640;13.812;2024-02-04T05:46:05;5.80;99.90
63313;DHT22;49442;45.640;13.812;2024-02-04T05:48:31;5.80;99.90
63313;DHT22;49442;45.640;13.812;2024-02-04T05:50:56;5.80;99.90
63313;DHT22;49442;45.640;13.812;2024-02-04T05:53:22;5.80;99.90
63313;DHT22;49442;45.640;13.812;2024-02-04T05:55:48;5.70;99.90
63313;DHT22;49442;45.640;13.812;2024-02-04T05:58:14;5.70;99.90
63313;DHT22;49442;45.640;13.812;2024-02-04T06:00:40;5.70;99.90
63313;DHT22;49442;45.640;13.812;2024-02-04T06:03:06;5.70;99.90
63313;DHT22;49442;45.640;13.812;2024-02-04T06:05:32;5.80;99.90
63313;DHT22;49442;45.640;13.812;2024-02-04T06:07:58;5.70;99.90
63313;DHT22;49442;45.640;13.812;2024-02-04T06:10:23;5.80;99.90
63313;DHT22;49442;45.640;13.812;2024-02-04T06:12:49;5.80;99.90
63313;DHT22;49442;45.640;13.812;2024-02-04T06:15:15;5.80;99.90
63313;DHT22;49442;45.640;13.812;2024-02-04T06:17:41;5.70;99.90
63313;DHT22;49442;45.640;13.812;2024-02-04T06:20:08;5.70;99.90
63313;DHT22;49442;45.640;13.812;2024-02-04T06:22:36;5.70;99.90
63313;DHT22;49442;45.640;13.812;2024-02-04T06:25:04;5.70;99.90
63313;DHT22;49442;45.640;13.812;2024-02-04T06:27:31;5.70;99.90
63313;DHT22;49442;45.640;13.812;2024-02-04T06:29:56;5.70;99.90
63313;DHT22;49442;45.640;13.812;2024-02-04T06:32:23;5.70;99.90
63313;DHT22;49442;45.640;13.812;2024-02-04T06:34:50;5.70;99.90
63313;DHT22;49442;45.640;13.812;2024-02-04T06:37:16;5.70;99.90
63313;DHT22;49442;45.640;13.812;2024-02-04T06:39:42;5.80;99.90
63313;DHT22;49442;45.640;13.812;2024-02-04T06:42:08;5.80;99.90
63313;DHT22;49442;45.640;13.812;2024-02-04T06:44:34;5.80;99.90
63313;DHT22;49442;45.640;13.812;2024-02-04T06:47:00;5.90;99.90
63313;DHT22;49442;45.640;13.812;2024-02-04T06:49:26;5.90;99.90
63313;DHT22;49442;45.640;13.812;2024-02-04T06:51:52;5.90;99.90
63313;DHT22;49442;45.640;13.812;2024-02-04T06:54:25;5.90;99.90
63313;DHT22;49442;45.640;13.812;2024-02-04T06:56:51;6.00;99.90
63313;DHT22;49442;45.640;13.812;2024-02-04T06:59:20;6.10;99.90
63313;DHT22;49442;45.640;13.812;2024-02-04T07:01:46;6.20;99.90
63313;DHT22;49442;45.640;13.812;2024-02-04T07:04:12;6.20;99.90
63313;DHT22;49442;45.640;13.812;2024-02-04T07:06:38;6.20;99.90
63313;DHT22;49442;45.640;13.812;2024-02-04T07:09:04;6.20;99.90
63313;DHT22;49442;45.640;13.812;2024-02-04T07:11:29;6.40;99.90
63313;DHT22;49442;45.640;13.812;2024-02-04T07:13:55;6.40;99.90
63313;DHT22;49442;45.640;13.812;2024-02-04T07:16:25;6.40;99.90
63313;DHT22;49442;45.640;13.812;2024-02-04T07:18:51;6.50;99.90
63313;DHT22;49442;45.640;13.812;2024-02-04T07:21:17;6.60;99.90
63313;DHT22;49442;45.640;13.812;2024-02-04T07:23:43;6.60;99.90
63313;DHT22;49442;45.640;13.812;2024-02-04T07:26:09;6.60;99.90
63313;DHT22;49442;45.640;13.812;2024-02-04T07:28:34;6.70;99.90
63313;DHT22;49442;45.640;13.812;2024-02-04T07:31:00;6.80;99.90
63313;DHT22;49442;45.640;13.812;2024-02-04T07:33:26;6.90;99.90
63313;DHT22;49442;45.640;13.812;2024-02-04T07:35:52;7.00;99.90
63313;DHT22;49442;45.640;13.812;2024-02-04T07:38:17;7.10;99.90
63313;DHT22;49442;45.640;13.812;2024-02-04T07:40:43;7.20;99.90
63313;DHT22;49442;45.640;13.812;2024-02-04T07:43:09;7.40;99.90
63313;DHT22;49442;45.640;13.812;2024-02-04T07:45:35;7.40;99.90
63313;DHT22;49442;45.640;13.812;2024-02-04T07:48:00;7.40;99.90
63313;DHT22;49442;45.640;13.812;2024-02-04T07:50:27;7.40;99.90
63313;DHT22;49442;45.640;13.812;2024-02-04T07:52:53;7.50;99.90
63313;DHT22;49442;45.640;13.812;2024-02-04T07:55:19;7.60;99.90
63313;DHT22;49442;45.640;13.812;2024-02-04T07:57:49;7.60;99.90
63313;DHT22;49442;45.640;13.812;2024-02-04T08:00:24;7.70;99.90
63313;DHT22;49442;45.640;13.812;2024-02-04T08:02:50;7.70;99.90
63313;DHT22;49442;45.640;13.812;2024-02-04T08:05:16;7.70;99.90
63313;DHT22;49442;45.640;13.812;2024-02-04T08:07:42;7.80;99.90
63313;DHT22;49442;45.640;13.812;2024-02-04T08:10:08;7.90;99.90
63313;DHT22;49442;45.640;13.812;2024-02-04T08:12:35;7.90;99.90
63313;DHT22;49442;45.640;13.812;2024-02-04T08:15:01;8.00;99.90
63313;DHT22;49442;45.640;13.812;2024-02-04T08:17:27;8.00;99.90
63313;DHT22;49442;45.640;13.812;2024-02-04T08:19:56;8.00;99.90
63313;DHT22;49442;45.640;13.812;2024-02-04T08:22:23;8.00;99.90
63313;DHT22;49442;45.640;13.812;2024-02-04T08:24:49;8.10;99.90
63313;DHT22;49442;45.640;13.812;2024-02-04T08:27:17;8.20;99.90
63313;DHT22;49442;45.640;13.812;2024-02-04T08:29:44;8.30;99.90
63313;DHT22;49442;45.640;13.812;2024-02-04T08:32:10;8.40;99.90
63313;DHT22;49442;45.640;13.812;2024-02-04T08:34:38;8.40;99.90
63313;DHT22;49442;45.640;13.812;2024-02-04T08:37:04;8.50;99.90
63313;DHT22;49442;45.640;13.812;2024-02-04T08:39:29;8.60;99.90
63313;DHT22;49442;45.640;13.812;2024-02-04T08:41:56;8.80;99.90
63313;DHT22;49442;45.640;13.812;2024-02-04T08:44:22;9.10;99.90
63313;DHT22;49442;45.640;13.812;2024-02-04T08:46:47;9.50;99.90
63313;DHT22;49442;45.640;13.812;2024-02-04T08:49:13;9.80;99.90
63313;DHT22;49442;45.640;13.812;2024-02-04T08:51:39;10.10;99.90
63313;DHT22;49442;45.640;13.812;2024-02-04T08:54:04;10.30;99.90
63313;DHT22;49442;45.640;13.812;2024-02-04T08:56:30;10.50;99.90
63313;DHT22;49442;45.640;13.812;2024-02-04T08:58:56;10.60;99.90
63313;DHT22;49442;45.640;13.812;2024-02-04T09:01:21;10.70;99.90
63313;DHT22;49442;45.640;13.812;2024-02-04T09:03:47;10.90;99.90
63313;DHT22;49442;45.640;13.812;2024-02-04T09:06:13;11.10;99.90
63313;DHT22;49442;45.640;13.812;2024-02-04T09:08:38;11.30;99.90
63313;DHT22;49442;45.640;13.812;2024-02-04T09:11:04;11.70;99.90
63313;DHT22;49442;45.640;13.812;2024-02-04T09:13:30;12.00;99.90
63313;DHT22;49442;45.640;13.812;2024-02-04T09:15:55;12.10;99.90
63313;DHT22;49442;45.640;13.812;2024-02-04T09:18:21;12.50;99.90
63313;DHT22;49442;45.640;13.812;2024-02-04T09:20:47;13.20;99.90
63313;DHT22;49442;45.640;13.812;2024-02-04T09:23:13;13.70;99.90
63313;DHT22;49442;45.640;13.812;2024-02-04T09:25:39;14.20;99.90
63313;DHT22;49442;45.640;13.812;2024-02-04T09:28:04;14.50;99.90
63313;DHT22;49442;45.640;13.812;2024-02-04T09:30:30;14.70;98.70
63313;DHT22;49442;45.640;13.812;2024-02-04T09:32:56;14.90;99.10
63313;DHT22;49442;45.640;13.812;2024-02-04T09:35:22;15.20;98.20
63313;DHT22;49442;45.640;13.812;2024-02-04T09:37:48;15.20;97.70
63313;DHT22;49442;45.640;13.812;2024-02-04T09:40:14;15.20;97.40
63313;DHT22;49442;45.640;13.812;2024-02-04T09:42:40;16.00;97.20
63313;DHT22;49442;45.640;13.812;2024-02-04T09:45:06;16.80;95.00
63313;DHT22;49442;45.640;13.812;2024-02-04T09:47:34;17.90;92.40
63313;DHT22;49442;45.640;13.812;2024-02-04T09:50:01;18.50;91.10
63313;DHT22;49442;45.640;13.812;2024-02-04T09:52:30;19.30;89.70
63313;DHT22;49442;45.640;13.812;2024-02-04T09:55:02;19.60;87.20
63313;DHT22;49442;45.640;13.812;2024-02-04T09:57:29;19.50;88.90
63313;DHT22;49442;45.640;13.812;2024-02-04T09:59:56;19.70;90.00
63313;DHT22;49442;45.640;13.812;2024-02-04T10:02:23;20.40;88.90
63313;DHT22;49442;45.640;13.812;2024-02-04T10:04:49;20.50;85.90
63313;DHT22;49442;45.640;13.812;2024-02-04T10:07:14;20.80;86.20
63313;DHT22;49442;45.640;13.812;2024-02-04T10:09:42;21.00;84.30
63313;DHT22;49442;45.640;13.812;2024-02-04T10:12:08;21.20;83.20
63313;DHT22;49442;45.640;13.812;2024-02-04T10:14:35;21.00;81.70
63313;DHT22;49442;45.640;13.812;2024-02-04T10:17:00;21.10;81.10
63313;DHT22;49442;45.640;13.812;2024-02-04T10:19:26;20.90;81.40
63313;DHT22;49442;45.640;13.812;2024-02-04T10:22:02;20.70;82.80
63313;DHT22;49442;45.640;13.812;2024-02-04T10:24:29;20.90;82.80
63313;DHT22;49442;45.640;13.812;2024-02-04T10:26:56;21.00;81.30
63313;DHT22;49442;45.640;13.812;2024-02-04T10:29:25;20.70;81.70
63313;DHT22;49442;45.640;13.812;2024-02-04T10:31:57;20.50;83.40
63313;DHT22;49442;45.640;13.812;2024-02-04T10:34:26;19.70;84.00
63313;DHT22;49442;45.640;13.812;2024-02-04T10:36:53;19.10;86.20
63313;DHT22;49442;45.640;13.812;2024-02-04T10:39:18;18.60;87.30
63313;DHT22;49442;45.640;13.812;2024-02-04T10:41:50;17.90;86.90
63313;DHT22;49442;45.640;13.812;2024-02-04T10:44:18;17.20;89.70
63313;DHT22;49442;45.640;13.812;2024-02-04T10:46:50;17.10;90.60
63313;DHT22;49442;45.640;13.812;2024-02-04T10:49:18;16.80;91.30
63313;DHT22;49442;45.640;13.812;2024-02-04T10:51:45;16.40;91.60
63313;DHT22;49442;45.640;13.812;2024-02-04T10:54:14;16.30;93.10
63313;DHT22;49442;45.640;13.812;2024-02-04T10:56:43;16.40;93.10
63313;DHT22;49442;45.640;13.812;2024-02-04T10:59:10;17.00;93.10
63313;DHT22;49442;45.640;13.812;2024-02-04T11:01:38;17.80;92.40
63313;DHT22;49442;45.640;13.812;2024-02-04T11:04:05;18.00;91.90
63313;DHT22;49442;45.640;13.812;2024-02-04T11:06:32;17.70;91.20
63313;DHT22;49442;45.640;13.812;2024-02-04T11:08:58;16.90;93.30
63313;DHT22;49442;45.640;13.812;2024-02-04T11:11:26;16.40;94.00
63313;DHT22;49442;45.640;13.812;2024-02-04T11:13:56;16.40;94.50
63313;DHT22;49442;45.640;13.812;2024-02-04T11:25:03;15.10;98.00
63313;DHT22;49442;45.640;13.812;2024-02-04T11:27:08;15.00;97.50
63313;DHT22;49442;45.640;13.812;2024-02-04T11:29:34;15.20;99.00
63313;DHT22;49442;45.640;13.812;2024-02-04T11:32:01;15.30;98.10
63313;DHT22;49442;45.640;13.812;2024-02-04T11:34:28;15.70;98.40
63313;DHT22;49442;45.640;13.812;2024-02-04T11:36:54;16.10;97.30
63313;DHT22;49442;45.640;13.812;2024-02-04T11:39:21;16.40;97.10
63313;DHT22;49442;45.640;13.812;2024-02-04T11:41:51;17.00;96.40
63313;DHT22;49442;45.640;13.812;2024-02-04T11:44:24;17.60;94.30
63313;DHT22;49442;45.640;13.812;2024-02-04T11:46:50;17.70;94.30
63313;DHT22;49442;45.640;13.812;2024-02-04T11:49:19;17.60;93.60
63313;DHT22;49442;45.640;13.812;2024-02-04T11:51:48;17.10;93.20
63313;DHT22;49442;45.640;13.812;2024-02-04T11:54:15;16.70;94.50
63313;DHT22;49442;45.640;13.812;2024-02-04T11:56:42;16.30;95.20
63313;DHT22;49442;45.640;13.812;2024-02-04T11:59:08;16.00;95.50
63313;DHT22;49442;45.640;13.812;2024-02-04T12:01:35;16.10;95.70
63313;DHT22;49442;45.640;13.812;2024-02-04T12:04:32;15.60;97.30
63313;DHT22;49442;45.640;13.812;2024-02-04T12:06:58;15.40;97.60
63313;DHT22;49442;45.640;13.812;2024-02-04T12:09:26;15.10;98.40
63313;DHT22;49442;45.640;13.812;2024-02-04T12:11:53;15.00;98.80
63313;DHT22;49442;45.640;13.812;2024-02-04T12:14:19;14.70;99.80
63313;DHT22;49442;45.640;13.812;2024-02-04T12:16:45;14.60;99.90
63313;DHT22;49442;45.640;13.812;2024-02-04T12:19:11;14.20;99.90
63313;DHT22;49442;45.640;13.812;2024-02-04T12:21:37;14.20;99.90
63313;DHT22;49442;45.640;13.812;2024-02-04T12:24:03;14.30;99.90
63313;DHT22;49442;45.640;13.812;2024-02-04T12:26:30;14.30;99.90
63313;DHT22;49442;45.640;13.812;2024-02-04T12:28:55;14.20;99.90
63313;DHT22;49442;45.640;13.812;2024-02-04T12:31:25;14.10;99.90
63313;DHT22;49442;45.640;13.812;2024-02-04T12:33:55;14.10;99.90
63313;DHT22;49442;45.640;13.812;2024-02-04T12:36:24;14.00;99.90
63313;DHT22;49442;45.640;13.812;2024-02-04T12:39:00;14.00;99.90
63313;DHT22;49442;45.640;13.812;2024-02-04T12:41:27;13.90;99.90
63313;DHT22;49442;45.640;13.812;2024-02-04T12:43:55;13.90;99.90
63313;DHT22;49442;45.640;13.812;2024-02-04T12:46:22;13.90;99.90
63313;DHT22;49442;45.640;13.812;2024-02-04T12:48:55;13.90;99.90
63313;DHT22;49442;45.640;13.812;2024-02-04T12:51:27;13.80;99.90
63313;DHT22;49442;45.640;13.812;2024-02-04T12:54:09;13.70;99.90
63313;DHT22;49442;45.640;13.812;2024-02-04T12:56:53;13.60;99.90
63313;DHT22;49442;45.640;13.812;2024-02-04T12:59:33;13.60;99.90
63313;DHT22;49442;45.640;13.812;2024-02-04T13:02:07;13.50;99.90
63313;DHT22;49442;45.640;13.812;2024-02-04T13:04:42;13.30;99.90
63313;DHT22;49442;45.640;13.812;2024-02-04T13:07:12;13.30;99.90
63313;DHT22;49442;45.640;13.812;2024-02-04T13:09:40;13.30;99.90
63313;DHT22;49442;45.640;13.812;2024-02-04T13:12:07;13.30;99.90
63313;DHT22;49442;45.640;13.812;2024-02-04T13:14:35;13.20;99.90
63313;DHT22;49442;45.640;13.812;2024-02-04T13:17:02;13.20;99.90
63313;DHT22;49442;45.640;13.812;2024-02-04T13:19:33;13.20;99.90
63313;DHT22;49442;45.640;13.812;2024-02-04T13:21:59;13.10;99.90
63313;DHT22;49442;45.640;13.812;2024-02-04T13:24:24;13.20;99.90
63313;DHT22;49442;45.640;13.812;2024-02-04T13:26:50;13.20;99.90
63313;DHT22;49442;45.640;13.812;2024-02-04T13:29:16;13.30;99.90
63313;DHT22;49442;45.640;13.812;2024-02-04T13:31:42;13.30;99.90
63313;DHT22;49442;45.640;13.812;2024-02-04T13:34:07;13.30;99.90
63313;DHT22;49442;45.640;13.812;2024-02-04T13:36:34;13.20;99.90
63313;DHT22;49442;45.640;13.812;2024-02-04T13:38:59;13.10;99.90
63313;DHT22;49442;45.640;13.812;2024-02-04T13:41:25;13.20;99.90
63313;DHT22;49442;45.640;13.812;2024-02-04T13:43:51;13.30;99.90
63313;DHT22;49442;45.640;13.812;2024-02-04T13:46:17;13.20;99.90
63313;DHT22;49442;45.640;13.812;2024-02-04T13:48:43;13.20;99.90
63313;DHT22;49442;45.640;13.812;2024-02-04T13:51:08;13.20;99.90
63313;DHT22;49442;45.640;13.812;2024-02-04T13:53:34;13.30;99.90
63313;DHT22;49442;45.640;13.812;2024-02-04T13:56:01;13.30;99.90
63313;DHT22;49442;45.640;13.812;2024-02-04T13:58:27;13.40;99.90
63313;DHT22;49442;45.640;13.812;2024-02-04T14:00:52;13.80;99.90
63313;DHT22;49442;45.640;13.812;2024-02-04T14:03:18;14.30;99.90
63313;DHT22;49442;45.640;13.812;2024-02-04T14:05:44;14.60;99.90
63313;DHT22;49442;45.640;13.812;2024-02-04T14:08:10;14.80;99.90
63313;DHT22;49442;45.640;13.812;2024-02-04T14:10:36;14.70;99.90
63313;DHT22;49442;45.640;13.812;2024-02-04T14:13:02;14.70;99.90
63313;DHT22;49442;45.640;13.812;2024-02-04T14:15:28;14.70;99.90
63313;DHT22;49442;45.640;13.812;2024-02-04T14:17:54;14.70;99.90
63313;DHT22;49442;45.640;13.812;2024-02-04T14:20:20;14.50;99.90
63313;DHT22;49442;45.640;13.812;2024-02-04T14:22:45;14.20;99.90
63313;DHT22;49442;45.640;13.812;2024-02-04T14:25:11;14.00;99.90
63313;DHT22;49442;45.640;13.812;2024-02-04T14:27:38;13.80;99.90
63313;DHT22;49442;45.640;13.812;2024-02-04T14:30:04;13.40;99.90
63313;DHT22;49442;45.640;13.812;2024-02-04T14:32:32;13.20;99.90
63313;DHT22;49442;45.640;13.812;2024-02-04T14:34:58;13.10;99.90
63313;DHT22;49442;45.640;13.812;2024-02-04T14:37:24;13.00;99.90
63313;DHT22;49442;45.640;13.812;2024-02-04T14:39:49;12.80;99.90
63313;DHT22;49442;45.640;13.812;2024-02-04T14:42:16;12.70;99.90
63313;DHT22;49442;45.640;13.812;2024-02-04T14:44:44;12.60;99.90
63313;DHT22;49442;45.640;13.812;2024-02-04T14:47:09;12.60;99.90
63313;DHT22;49442;45.640;13.812;2024-02-04T14:49:36;12.60;99.90
63313;DHT22;49442;45.640;13.812;2024-02-04T14:52:03;12.60;99.90
63313;DHT22;49442;45.640;13.812;2024-02-04T14:54:28;12.50;99.90
63313;DHT22;49442;45.640;13.812;2024-02-04T14:56:54;12.50;99.90
63313;DHT22;49442;45.640;13.812;2024-02-04T14:59:20;12.50;99.90
63313;DHT22;49442;45.640;13.812;2024-02-04T15:01:46;12.50;99.90
63313;DHT22;49442;45.640;13.812;2024-02-04T15:04:12;12.50;99.90
63313;DHT22;49442;45.640;13.812;2024-02-04T15:06:39;12.40;99.90
63313;DHT22;49442;45.640;13.812;2024-02-04T15:09:05;12.30;99.90
63313;DHT22;49442;45.640;13.812;2024-02-04T15:11:31;12.20;99.90
63313;DHT22;49442;45.640;13.812;2024-02-04T15:13:58;12.20;99.90
63313;DHT22;49442;45.640;13.812;2024-02-04T15:16:24;12.10;99.90
63313;DHT22;49442;45.640;13.812;2024-02-04T15:18:50;11.90;99.90
63313;DHT22;49442;45.640;13.812;2024-02-04T15:21:16;11.80;99.90
63313;DHT22;49442;45.640;13.812;2024-02-04T15:23:42;11.70;99.90
63313;DHT22;49442;45.640;13.812;2024-02-04T15:26:10;11.60;99.90
63313;DHT22;49442;45.640;13.812;2024-02-04T15:28:37;11.60;99.90
63313;DHT22;49442;45.640;13.812;2024-02-04T15:31:04;11.50;99.90